Time;durP1;ratioP1;P1;durP2;ratioP2;P2;SDS_P1;SDS_P2;PMS_P1;PMS_P2;Temp;Humidity;BMP_temperature;BMP_pressure;BME280_temperature;BME280_humidity;BME280_pressure;Samples;Min_cycle;Max_cycle;Signal;HPM_P1;HPM_P2
2024/04/01 00:03:27;;;;;;;10.55;4.95;;;10.90;99.90;;;;;;20286007;29;20036;-48
2024/04/01 00:13:28;;;;;;;10.93;4.82;;;10.80;99.90;;;;;;20284979;29;20044;-48
2024/04/01 00:23:28;;;;;;;10.60;5.03;;;10.80;99.90;;;;;;20285241;29;20052;-47
2024/04/01 00:33:29;;;;;;;12.25;5.22;;;10.70;99.90;;;;;;20283030;29;20847;-48
2024/04/01 00:43:31;;;;;;;8.95;4.68;;;10.60;99.90;;;;;;20282388;29;20048;-48
2024/04/01 00:53:32;;;;;;;9.38;4.93;;;10.50;99.90;;;;;;20282839;29;20043;-47
2024/04/01 01:03:34;;;;;;;11.93;5.53;;;10.30;99.90;;;;;;20281514;29;20051;-47
2024/04/01 01:13:35;;;;;;;9.40;5.00;;;10.20;99.90;;;;;;20281032;29;20060;-48
2024/04/01 01:23:36;;;;;;;11.18;5.55;;;10.10;99.90;;;;;;20290625;29;20051;-48
2024/04/01 01:33:36;;;;;;;8.80;5.65;;;10.00;99.90;;;;;;20274337;29;20382;-48
2024/04/01 01:43:37;;;;;;;11.32;5.65;;;10.00;99.90;;;;;;20274656;29;20119;-48
2024/04/01 01:53:37;;;;;;;8.57;5.30;;;10.00;99.90;;;;;;20276130;29;20074;-47
2024/04/01 02:03:38;;;;;;;8.18;5.35;;;10.00;99.90;;;;;;20271930;29;20121;-47
2024/04/01 02:13:40;;;;;;;9.40;5.18;;;9.90;99.90;;;;;;20272627;29;20048;-47
2024/04/01 02:23:41;;;;;;;9.45;5.50;;;9.90;99.90;;;;;;20291681;29;20484;-47
2024/04/01 02:33:42;;;;;;;7.93;5.40;;;9.80;99.90;;;;;;20287049;29;20420;-47
2024/04/01 02:43:45;;;;;;;7.85;5.05;;;9.80;99.90;;;;;;20286564;29;20078;-48
2024/04/01 02:53:49;;;;;;;6.22;4.72;;;9.70;99.90;;;;;;20287442;29;20055;-46
2024/04/01 03:03:51;;;;;;;11.20;5.13;;;9.60;99.90;;;;;;20285518;29;20048;-47
2024/04/01 03:13:51;;;;;;;7.75;4.88;;;9.60;99.90;;;;;;20283737;29;20040;-47
2024/04/01 03:23:52;;;;;;;7.50;4.65;;;9.60;99.90;;;;;;20285625;29;20497;-48
2024/04/01 03:33:53;;;;;;;6.82;4.90;;;9.50;99.90;;;;;;20284215;29;20111;-48
2024/04/01 03:43:54;;;;;;;6.80;4.97;;;9.40;99.90;;;;;;20283415;29;20544;-48
2024/04/01 03:53:54;;;;;;;6.53;4.57;;;9.40;99.90;;;;;;20283211;29;20074;-49
2024/04/01 04:03:55;;;;;;;7.47;4.50;;;9.40;99.90;;;;;;20280750;29;20576;-48
2024/04/01 04:13:56;;;;;;;5.47;3.88;;;9.40;99.90;;;;;;20281547;29;20068;-47
2024/04/01 04:23:56;;;;;;;5.60;4.38;;;9.30;99.90;;;;;;20280708;29;20059;-47
2024/04/01 04:33:58;;;;;;;5.28;3.83;;;9.20;99.90;;;;;;20278577;29;20488;-47
2024/04/01 04:44:00;;;;;;;7.18;4.22;;;9.30;99.90;;;;;;20278543;29;20040;-48
2024/04/01 04:54:01;;;;;;;5.45;3.88;;;9.20;99.90;;;;;;20277805;29;20052;-47
2024/04/01 05:04:01;;;;;;;5.97;4.23;;;9.20;99.90;;;;;;20277080;29;20063;-47
2024/04/01 05:14:06;;;;;;;5.95;3.72;;;9.30;99.90;;;;;;20276545;29;20040;-48
2024/04/01 05:24:06;;;;;;;6.75;4.65;;;9.30;99.90;;;;;;20276044;29;20040;-47
2024/04/01 05:34:09;;;;;;;6.30;4.93;;;9.30;99.90;;;;;;20275896;29;20265;-47
2024/04/01 05:44:09;;;;;;;6.68;4.80;;;9.20;99.90;;;;;;20274963;29;20497;-47
2024/04/01 05:54:10;;;;;;;7.05;5.22;;;9.30;99.90;;;;;;20280591;29;20051;-47
2024/04/01 06:04:11;;;;;;;7.60;5.50;;;9.30;99.90;;;;;;20273644;29;20079;-47
2024/04/01 06:14:11;;;;;;;6.13;5.00;;;9.30;99.90;;;;;;20272436;29;20501;-47
2024/04/01 06:24:12;;;;;;;6.15;5.05;;;9.30;99.90;;;;;;20274278;29;20040;-47
2024/04/01 06:34:13;;;;;;;9.63;5.80;;;9.40;99.90;;;;;;20271944;29;20036;-48
2024/04/01 06:44:15;;;;;;;7.53;5.90;;;9.50;99.90;;;;;;20271202;29;20084;-48
2024/04/01 06:54:16;;;;;;;8.27;6.47;;;9.60;99.90;;;;;;20273053;29;20049;-48
2024/04/01 07:04:17;;;;;;;8.65;7.15;;;9.60;99.90;;;;;;20269914;29;20048;-48
2024/04/01 07:14:17;;;;;;;9.10;7.03;;;9.60;99.90;;;;;;20285403;29;20458;-48
2024/04/01 07:24:18;;;;;;;10.35;8.00;;;9.80;99.90;;;;;;20286218;29;20056;-48
2024/04/01 07:34:19;;;;;;;12.77;9.07;;;9.80;99.90;;;;;;20282526;29;20539;-48
2024/04/01 07:44:19;;;;;;;13.18;10.02;;;9.80;99.90;;;;;;20283140;29;20040;-47
2024/04/01 07:54:23;;;;;;;20.77;14.52;;;9.80;99.90;;;;;;20281638;29;20044;-48
2024/04/01 08:04:24;;;;;;;15.77;11.13;;;9.90;99.90;;;;;;20281204;29;20139;-48
2024/04/01 08:14:25;;;;;;;16.02;11.10;;;9.90;99.90;;;;;;20280330;29;20508;-48
2024/04/01 08:24:25;;;;;;;27.80;19.60;;;10.10;99.90;;;;;;20280892;29;20564;-48
2024/04/01 08:34:26;;;;;;;13.25;10.20;;;10.20;99.90;;;;;;20278227;29;20373;-48
2024/04/01 08:44:28;;;;;;;16.30;11.57;;;10.30;99.90;;;;;;20278100;29;20589;-47
2024/04/01 08:54:29;;;;;;;14.57;10.98;;;10.30;99.90;;;;;;20278411;29;20044;-47
2024/04/01 09:04:30;;;;;;;12.90;9.73;;;10.40;99.90;;;;;;20276650;29;20866;-47
2024/04/01 09:14:30;;;;;;;12.90;9.35;;;10.40;99.90;;;;;;20276945;29;20577;-48
2024/04/01 09:24:34;;;;;;;11.40;8.30;;;10.50;99.90;;;;;;20275988;29;20531;-47
2024/04/01 09:34:36;;;;;;;10.63;7.80;;;10.60;99.90;;;;;;20274557;29;20044;-47
2024/04/01 09:44:36;;;;;;;8.63;6.82;;;10.70;99.90;;;;;;20273206;29;20393;-47
2024/04/01 09:54:37;;;;;;;11.67;6.53;;;10.80;99.90;;;;;;20275843;29;20405;-48
2024/04/01 10:05:22;;;;;;;12.20;8.45;;;10.90;99.90;;;;;;20274275;29;20444;-47
2024/04/01 10:15:38;;;;;;;16.48;9.18;;;10.80;99.90;;;;;;20272723;29;20051;-47
2024/04/01 10:25:50;;;;;;;16.13;10.05;;;10.90;99.90;;;;;;20273251;29;20049;-47
2024/04/01 10:36:23;;;;;;;14.55;9.38;;;10.90;97.10;;;;;;20272644;29;20100;-47
2024/04/01 10:46:49;;;;;;;10.18;7.75;;;10.90;85.90;;;;;;20261118;29;20060;-47
2024/04/01 10:57:29;;;;;;;12.00;7.40;;;10.90;73.40;;;;;;20286146;29;20048;-47
2024/04/01 11:07:44;;;;;;;9.43;6.47;;;11.00;71.00;;;;;;20286133;29;20493;-47
2024/04/01 11:17:48;;;;;;;9.32;5.57;;;11.10;60.60;;;;;;20284302;29;20075;-47
2024/04/01 11:28:16;;;;;;;10.50;5.40;;;11.20;39.20;;;;;;20284197;29;20044;-47
2024/04/01 11:38:29;;;;;;;12.75;4.80;;;11.20;38.70;;;;;;20283268;29;20151;-47
2024/04/01 11:48:30;;;;;;;8.77;4.97;;;11.20;35.40;;;;;;20281894;29;20416;-47
2024/04/01 11:58:31;;;;;;;8.05;5.13;;;11.30;31.70;;;;;;20282708;29;20052;-47
2024/04/01 12:08:34;;;;;;;11.45;5.63;;;11.50;25.40;;;;;;20281264;29;20492;-47
2024/04/01 12:18:45;;;;;;;8.93;3.20;;;11.50;13.90;;;;;;20280486;29;20469;-47
2024/04/01 12:28:46;;;;;;;5.78;3.22;;;11.60;9.00;;;;;;20280514;29;20045;-47
2024/04/01 12:38:50;;;;;;;5.10;1.90;;;11.80;1.00;;;;;;20277588;29;20110;-47
2024/04/01 12:48:55;;;;;;;7.68;1.40;;;12.00;1.00;;;;;;20291937;29;20063;-47
2024/04/01 12:59:01;;;;;;;4.70;1.50;;;12.30;1.00;;;;;;20277989;29;20560;-47
2024/04/01 13:09:32;;;;;;;1.63;0.80;;;12.50;1.00;;;;;;20275991;29;20052;-46
2024/04/01 13:19:44;;;;;;;4.30;1.13;;;13.00;1.00;;;;;;20275352;29;20048;-46
2024/04/01 13:30:07;;;;;;;3.65;0.93;;;13.20;1.00;;;;;;20274675;29;20051;-47
2024/04/01 13:40:34;;;;;;;4.38;0.90;;;13.40;1.00;;;;;;20281199;29;20112;-46
2024/04/01 13:51:30;;;;;;;3.43;0.83;;;13.70;1.00;;;;;;20273216;29;20083;-47
2024/04/01 14:01:41;;;;;;;5.80;0.73;;;14.00;1.00;;;;;;20211056;29;20052;-47
2024/04/01 14:11:42;;;;;;;3.42;0.63;;;14.10;1.00;;;;;;20271667;29;21592;-45
2024/04/01 14:21:42;;;;;;;3.78;1.05;;;13.90;1.00;;;;;;20283672;29;20461;-46
2024/04/01 14:31:44;;;;;;;4.97;1.03;;;14.00;1.00;;;;;;20288781;29;20293;-45
2024/04/01 14:41:44;;;;;;;4.55;1.00;;;14.10;1.00;;;;;;20286405;29;20424;-47
2024/04/01 14:51:46;;;;;;;2.65;1.00;;;14.30;1.00;;;;;;20287899;29;20566;-46
2024/04/01 15:01:46;;;;;;;2.88;1.20;;;14.60;1.00;;;;;;20280713;29;22120;-46
2024/04/01 15:11:49;;;;;;;4.10;1.48;;;14.80;1.00;;;;;;20276092;29;20048;-45
2024/04/01 15:21:52;;;;;;;4.70;1.90;;;14.60;1.00;;;;;;20255699;29;20056;-45
2024/04/01 15:31:53;;;;;;;2.80;1.85;;;14.30;1.00;;;;;;20270254;29;20053;-45
2024/04/01 15:41:54;;;;;;;5.85;2.40;;;14.10;1.00;;;;;;20239948;29;20044;-46
2024/04/01 15:51:56;;;;;;;3.88;1.60;;;14.40;1.00;;;;;;20261977;29;20343;-45
2024/04/01 16:01:56;;;;;;;3.40;1.42;;;14.20;1.00;;;;;;20284704;29;20411;-45
2024/04/01 16:11:57;;;;;;;4.57;1.73;;;14.10;1.00;;;;;;20270973;29;20044;-46
2024/04/01 16:22:08;;;;;;;3.90;2.03;;;14.20;1.00;;;;;;20270421;29;20075;-46
2024/04/01 16:32:14;;;;;;;2.40;1.55;;;13.90;1.00;;;;;;20270295;29;20468;-45
2024/04/01 16:42:17;;;;;;;2.88;1.45;;;13.80;1.00;;;;;;20252923;29;20536;-45
2024/04/01 16:52:17;;;;;;;3.13;1.60;;;13.60;1.00;;;;;;20256672;29;20036;-45
2024/04/01 17:02:18;;;;;;;5.00;1.50;;;13.50;1.00;;;;;;20244902;29;20108;-46
2024/04/01 17:12:19;;;;;;;3.67;1.70;;;13.40;1.00;;;;;;20248532;29;20131;-45
2024/04/01 17:22:20;;;;;;;2.72;1.50;;;13.30;1.00;;;;;;20249905;29;20505;-45
2024/04/01 17:32:21;;;;;;;6.10;2.20;;;13.30;1.00;;;;;;20250001;29;20048;-45
2024/04/01 17:42:23;;;;;;;3.23;1.40;;;13.30;1.00;;;;;;20251780;29;20080;-45
2024/04/01 17:52:24;;;;;;;4.63;1.38;;;13.30;1.00;;;;;;20250714;29;20506;-45
2024/04/01 18:02:25;;;;;;;3.20;1.13;;;13.30;1.00;;;;;;20252246;29;20052;-44
2024/04/01 18:12:26;;;;;;;3.80;1.30;;;13.10;1.00;;;;;;20246728;29;20055;-44
2024/04/01 18:22:27;;;;;;;3.72;1.45;;;12.90;1.00;;;;;;20255822;29;20055;-45
2024/04/01 18:32:28;;;;;;;4.57;1.70;;;12.50;1.00;;;;;;20255754;29;20044;-45
2024/04/01 18:42:34;;;;;;;4.35;1.40;;;12.30;1.00;;;;;;20254275;29;20094;-45
2024/04/01 18:52:35;;;;;;;3.20;1.63;;;12.20;1.00;;;;;;20252994;29;20036;-44
2024/04/01 19:02:35;;;;;;;4.90;1.80;;;12.10;1.00;;;;;;20250560;29;20074;-45
2024/04/01 19:12:36;;;;;;;4.40;1.45;;;11.90;1.00;;;;;;20267298;29;20440;-46
2024/04/01 19:22:36;;;;;;;2.45;1.10;;;11.80;1.00;;;;;;20263082;29;20747;-45
2024/04/01 19:32:37;;;;;;;3.38;1.30;;;11.70;1.00;;;;;;20261962;29;20493;-46
2024/04/01 19:42:38;;;;;;;5.25;1.85;;;11.80;1.00;;;;;;20270524;29;20047;-46
2024/04/01 19:52:39;;;;;;;2.92;1.70;;;11.60;1.00;;;;;;20283473;29;20513;-46
2024/04/01 20:02:40;;;;;;;3.67;2.30;;;11.40;1.00;;;;;;20280234;29;20058;-45
2024/04/01 20:12:42;;;;;;;4.65;2.20;;;11.10;1.00;;;;;;20279952;29;20062;-46
2024/04/01 20:22:42;;;;;;;3.40;2.05;;;10.90;1.00;;;;;;20270505;29;20506;-45
2024/04/01 20:32:43;;;;;;;4.97;2.10;;;10.80;1.00;;;;;;20265934;29;20453;-46
2024/04/01 20:42:44;;;;;;;3.17;1.73;;;10.80;1.00;;;;;;20267017;29;20503;-46
2024/04/01 20:53:02;;;;;;;3.80;1.90;;;10.70;1.00;;;;;;20267562;29;20055;-45
2024/04/01 21:03:07;;;;;;;4.85;2.20;;;10.60;1.00;;;;;;20271254;29;20044;-47
2024/04/01 21:13:07;;;;;;;2.95;1.73;;;10.50;1.00;;;;;;20267473;29;20099;-46
2024/04/01 21:23:08;;;;;;;4.47;2.65;;;10.40;1.00;;;;;;20273235;29;20184;-47
2024/04/01 21:33:09;;;;;;;3.77;2.30;;;10.10;1.00;;;;;;20268735;29;20064;-46
2024/04/01 21:43:12;;;;;;;3.63;2.53;;;10.10;1.00;;;;;;20259477;29;20480;-47
2024/04/01 21:53:13;;;;;;;4.38;2.60;;;9.90;1.00;;;;;;20262269;29;20048;-47
2024/04/01 22:03:13;;;;;;;3.40;2.47;;;9.90;1.00;;;;;;20255483;29;20270;-45
2024/04/01 22:13:14;;;;;;;5.68;2.90;;;9.70;1.00;;;;;;20263254;29;20059;-45
2024/04/01 22:23:15;;;;;;;5.67;2.60;;;9.70;1.00;;;;;;20262245;29;20048;-46
2024/04/01 22:33:15;;;;;;;5.65;2.90;;;9.50;1.00;;;;;;20260772;29;20078;-46
2024/04/01 22:43:16;;;;;;;6.82;3.83;;;9.40;1.40;;;;;;20268862;29;20056;-46
2024/04/01 22:53:17;;;;;;;8.52;3.55;;;9.30;5.70;;;;;;20274053;29;20112;-46
2024/04/01 23:03:17;;;;;;;5.40;3.35;;;9.30;8.50;;;;;;20267879;29;20091;-47
2024/04/01 23:13:18;;;;;;;7.35;3.40;;;9.20;11.50;;;;;;20266218;29;20052;-46
2024/04/01 23:23:19;;;;;;;4.17;2.60;;;9.10;13.00;;;;;;20270244;29;20386;-46
2024/04/01 23:33:19;;;;;;;5.07;2.47;;;9.10;15.10;;;;;;20272898;29;20047;-47
2024/04/01 23:43:22;;;;;;;4.43;2.60;;;9.10;15.60;;;;;;20263647;29;20058;-46
2024/04/01 23:53:23;;;;;;;5.25;2.40;;;9.00;15.50;;;;;;20268967;29;20092;-45
